Time;durP1;ratioP1;P1;durP2;ratioP2;P2;SDS_P1;SDS_P2;PMS_P1;PMS_P2;Temp;Humidity;BMP_temperature;BMP_pressure;BME280_temperature;BME280_humidity;BME280_pressure;Samples;Min_cycle;Max_cycle;Signal;HPM_P1;HPM_P2
2022/09/24 00:01:39;;;;;;;9.88;4.50;;;;;;;;;;5085493;28;20024;-75
2022/09/24 00:04:10;;;;;;;10.02;4.18;;;;;;;;;;5084512;28;20122;-75
2022/09/24 00:06:39;;;;;;;8.15;3.33;;;;;;;;;;5074185;28;20105;-77
2022/09/24 00:09:06;;;;;;;5.97;3.22;;;;;;;;;;5083907;28;20369;-74
2022/09/24 00:11:32;;;;;;;5.55;3.00;;;;;;;;;;5085703;28;20032;-75
2022/09/24 00:13:59;;;;;;;6.40;2.92;;;;;;;;;;5072092;28;20021;-75
2022/09/24 00:16:26;;;;;;;6.03;3.80;;;;;;;;;;5091165;28;20044;-74
2022/09/24 00:18:53;;;;;;;9.25;3.80;;;;;;;;;;5091762;28;20028;-75
2022/09/24 00:21:20;;;;;;;7.68;4.28;;;;;;;;;;5091251;28;20051;-75
2022/09/24 00:23:50;;;;;;;5.95;3.22;;;;;;;;;;5066363;28;20131;-74
2022/09/24 00:29:01;;;;;;;7.68;3.53;;;;;;;;;;5088074;28;20093;-75
2022/09/24 00:31:28;;;;;;;9.05;4.07;;;;;;;;;;5068761;28;20033;-75
2022/09/24 00:33:54;;;;;;;10.95;4.47;;;;;;;;;;5070819;28;20028;-74
2022/09/24 00:36:21;;;;;;;11.25;5.38;;;;;;;;;;5086828;28;20049;-75
2022/09/24 00:38:49;;;;;;;6.60;3.50;;;;;;;;;;5070060;28;20121;-75
2022/09/24 00:41:15;;;;;;;5.45;3.47;;;;;;;;;;5087895;28;20093;-75
2022/09/24 00:43:41;;;;;;;8.38;3.00;;;;;;;;;;5087284;28;20075;-74
2022/09/24 00:46:19;;;;;;;11.38;3.55;;;;;;;;;;5072208;28;20020;-73
2022/09/24 00:48:47;;;;;;;8.32;3.10;;;;;;;;;;5075633;28;20448;-74
2022/09/24 00:51:15;;;;;;;6.38;4.10;;;;;;;;;;5084676;28;20144;-74
2022/09/24 00:53:42;;;;;;;8.48;2.70;;;;;;;;;;5090188;28;20028;-75
2022/09/24 00:56:10;;;;;;;7.68;3.63;;;;;;;;;;5087670;28;20153;-75
2022/09/24 00:58:36;;;;;;;6.47;3.55;;;;;;;;;;5087595;28;20059;-75
2022/09/24 01:01:07;;;;;;;7.00;4.63;;;;;;;;;;5079938;28;20032;-74
2022/09/24 01:03:34;;;;;;;6.75;3.78;;;;;;;;;;5074852;28;20053;-75
2022/09/24 01:06:00;;;;;;;8.07;3.97;;;;;;;;;;5076142;28;20033;-74
2022/09/24 01:08:27;;;;;;;8.10;3.72;;;;;;;;;;5074701;28;20036;-74
2022/09/24 01:10:56;;;;;;;9.38;4.20;;;;;;;;;;5093324;28;20027;-74
2022/09/24 01:13:47;;;;;;;3.65;3.00;;;;;;;;;;5091570;28;20024;-74
2022/09/24 01:16:22;;;;;;;13.38;3.13;;;;;;;;;;5070264;28;20020;-74
2022/09/24 01:18:48;;;;;;;;;;;;;;;;;;5084622;28;20752;-74
2022/09/24 01:21:14;;;;;;;;;;;;;;;;;;5067825;28;19904;-75
2022/09/24 01:23:40;;;;;;;;;;;;;;;;;;5096934;28;19912;-74
2022/09/24 01:26:06;;;;;;;;;;;;;;;;;;5083944;28;20376;-74
2022/09/24 01:28:32;;;;;;;;;;;;;;;;;;5096658;28;19904;-74
2022/09/24 01:30:58;;;;;;;;;;;;;;;;;;5078297;28;19958;-75
2022/09/24 01:33:24;;;;;;;;;;;;;;;;;;5083051;28;19921;-76
2022/09/24 01:35:54;;;;;;;9.18;5.57;;;;;;;;;;5093522;28;19970;-75
2022/09/24 01:38:31;;;;;;;11.75;4.40;;;;;;;;;;5087655;28;20024;-74
2022/09/24 01:40:59;;;;;;;5.97;2.83;;;;;;;;;;5072188;28;20028;-74
2022/09/24 01:43:27;;;;;;;7.60;2.83;;;;;;;;;;5067199;28;20043;-75
2022/09/24 01:45:58;;;;;;;4.75;2.85;;;;;;;;;;5081545;28;20019;-75
2022/09/24 01:48:25;;;;;;;4.28;2.60;;;;;;;;;;5071349;28;20746;-73
2022/09/24 01:51:05;;;;;;;7.25;2.72;;;;;;;;;;5090492;28;20095;-75
2022/09/24 01:53:34;;;;;;;9.27;3.00;;;;;;;;;;5083329;28;20057;-76
2022/09/24 01:56:26;;;;;;;7.50;3.05;;;;;;;;;;5103877;28;20059;-74
2022/09/24 01:58:58;;;;;;;6.97;3.28;;;;;;;;;;5053136;28;20040;-74
2022/09/24 02:01:28;;;;;;;5.65;3.05;;;;;;;;;;5088994;28;20059;-75
2022/09/24 02:04:00;;;;;;;9.93;2.60;;;;;;;;;;5073832;28;20032;-76
2022/09/24 02:06:35;;;;;;;5.13;2.63;;;;;;;;;;5087094;28;20054;-75
2022/09/24 02:09:01;;;;;;;4.55;3.33;;;;;;;;;;5097758;28;20025;-75
2022/09/24 02:11:28;;;;;;;7.50;2.60;;;;;;;;;;5093285;28;20024;-75
2022/09/24 02:14:03;;;;;;;4.78;2.72;;;;;;;;;;5078725;28;20032;-75
2022/09/24 02:16:30;;;;;;;4.88;2.90;;;;;;;;;;5077164;28;20072;-75
2022/09/24 02:18:59;;;;;;;4.22;2.72;;;;;;;;;;5086487;28;20043;-75
2022/09/24 02:21:26;;;;;;;5.68;2.92;;;;;;;;;;5095166;28;20527;-75
2022/09/24 02:24:13;;;;;;;7.00;3.20;;;;;;;;;;5091239;28;20040;-75
2022/09/24 02:26:39;;;;;;;5.15;2.65;;;;;;;;;;5089176;28;20028;-74
2022/09/24 02:29:06;;;;;;;4.25;2.60;;;;;;;;;;5077163;28;20095;-74
2022/09/24 02:31:34;;;;;;;3.58;2.40;;;;;;;;;;5069835;28;20073;-75
2022/09/24 02:34:21;;;;;;;5.22;2.50;;;;;;;;;;5089117;28;20066;-75
2022/09/24 02:36:48;;;;;;;4.28;2.50;;;;;;;;;;5072392;28;20096;-76
2022/09/24 02:39:16;;;;;;;5.32;2.75;;;;;;;;;;5082337;28;20028;-75
2022/09/24 02:41:46;;;;;;;5.68;2.50;;;;;;;;;;5075406;28;20016;-75
2022/09/24 02:44:13;;;;;;;6.97;3.10;;;;;;;;;;5067274;28;20027;-74
2022/09/24 02:46:40;;;;;;;7.63;2.80;;;;;;;;;;5074561;28;20118;-75
2022/09/24 02:49:06;;;;;;;6.78;2.72;;;;;;;;;;5079651;28;20028;-75
2022/09/24 02:51:33;;;;;;;6.03;2.90;;;;;;;;;;5083034;28;20453;-75
2022/09/24 02:54:00;;;;;;;4.82;2.55;;;;;;;;;;5087866;28;20179;-74
2022/09/24 02:56:27;;;;;;;8.20;3.00;;;;;;;;;;5099238;28;20018;-75
2022/09/24 02:58:53;;;;;;;6.43;2.88;;;;;;;;;;5098457;28;20015;-75
2022/09/24 03:01:19;;;;;;;8.10;3.40;;;;;;;;;;5073379;28;20031;-75
2022/09/24 03:03:47;;;;;;;6.75;2.88;;;;;;;;;;5089196;28;20039;-74
2022/09/24 03:06:13;;;;;;;9.50;2.85;;;;;;;;;;5078884;28;20044;-75
2022/09/24 03:08:41;;;;;;;12.85;3.33;;;;;;;;;;5078765;28;20055;-75
2022/09/24 03:11:07;;;;;;;7.18;3.40;;;;;;;;;;5067832;28;20464;-75
2022/09/24 03:13:33;;;;;;;7.80;2.88;;;;;;;;;;5081654;28;20020;-75
2022/09/24 03:15:59;;;;;;;7.50;3.22;;;;;;;;;;5072825;28;20028;-75
2022/09/24 03:18:25;;;;;;;8.48;2.70;;;;;;;;;;5082927;28;20473;-75
2022/09/24 03:20:59;;;;;;;8.38;2.80;;;;;;;;;;5087171;28;20031;-76
2022/09/24 03:23:25;;;;;;;5.63;2.97;;;;;;;;;;5095153;28;20033;-75
2022/09/24 03:25:51;;;;;;;7.80;3.00;;;;;;;;;;5092311;28;20672;-74
2022/09/24 03:28:17;;;;;;;5.13;2.83;;;;;;;;;;5092526;28;20107;-75
2022/09/24 03:30:59;;;;;;;6.28;3.05;;;;;;;;;;5098452;28;20034;-74
2022/09/24 03:33:51;;;;;;;7.32;3.65;;;;;;;;;;5093305;28;20031;-75
2022/09/24 03:36:23;;;;;;;7.20;3.20;;;;;;;;;;5077819;28;20032;-74
2022/09/24 03:38:50;;;;;;;9.07;3.97;;;;;;;;;;5069860;28;20063;-76
2022/09/24 03:41:17;;;;;;;7.22;4.78;;;;;;;;;;5063148;28;20114;-74
2022/09/24 03:43:43;;;;;;;10.48;3.60;;;;;;;;;;5092339;28;20066;-75
2022/09/24 03:46:11;;;;;;;5.85;3.25;;;;;;;;;;5090427;28;20032;-74
2022/09/24 03:48:38;;;;;;;6.13;3.50;;;;;;;;;;5093447;28;20032;-75
2022/09/24 03:51:05;;;;;;;7.47;3.47;;;;;;;;;;5088934;28;20438;-75
2022/09/24 03:53:32;;;;;;;6.68;4.45;;;;;;;;;;5092026;28;20025;-75
2022/09/24 03:55:58;;;;;;;11.10;3.70;;;;;;;;;;5103561;28;20019;-75
2022/09/24 03:58:25;;;;;;;9.90;4.43;;;;;;;;;;5066219;28;20024;-75
2022/09/24 04:00:56;;;;;;;6.70;4.75;;;;;;;;;;5065252;28;20067;-75
2022/09/24 04:03:22;;;;;;;6.88;3.78;;;;;;;;;;5079683;28;20032;-74
2022/09/24 04:05:51;;;;;;;5.68;4.10;;;;;;;;;;5087604;28;20028;-74
2022/09/24 04:08:18;;;;;;;3.72;2.95;;;;;;;;;;5074639;28;20080;-74
2022/09/24 04:10:45;;;;;;;6.10;2.72;;;;;;;;;;5082313;28;20025;-75
2022/09/24 04:13:11;;;;;;;3.00;2.60;;;;;;;;;;5091198;28;20024;-74
2022/09/24 04:15:37;;;;;;;7.88;2.80;;;;;;;;;;5074052;28;20165;-75
2022/09/24 04:18:04;;;;;;;4.57;2.75;;;;;;;;;;5070908;28;20031;-75
2022/09/24 04:20:31;;;;;;;3.45;2.60;;;;;;;;;;5100115;28;20020;-75
2022/09/24 04:22:58;;;;;;;6.05;2.72;;;;;;;;;;5090371;28;20356;-73
2022/09/24 04:25:25;;;;;;;7.45;2.60;;;;;;;;;;5088747;28;20075;-74
2022/09/24 04:27:53;;;;;;;6.07;2.97;;;;;;;;;;5108188;28;20070;-75
2022/09/24 04:30:19;;;;;;;7.05;3.65;;;;;;;;;;5088553;28;20092;-75
2022/09/24 04:32:46;;;;;;;7.25;2.25;;;;;;;;;;5102905;28;20118;-75
2022/09/24 04:35:12;;;;;;;7.00;2.95;;;;;;;;;;5094632;28;20091;-75
2022/09/24 04:37:38;;;;;;;5.43;2.67;;;;;;;;;;5073050;28;20048;-75
2022/09/24 04:40:08;;;;;;;6.03;3.55;;;;;;;;;;5090440;28;20024;-74
2022/09/24 04:42:35;;;;;;;7.25;4.68;;;;;;;;;;5090203;28;20031;-75
2022/09/24 04:45:01;;;;;;;10.35;5.03;;;;;;;;;;5088192;28;20023;-75
2022/09/24 04:47:27;;;;;;;6.68;3.75;;;;;;;;;;5082663;28;20028;-74
2022/09/24 04:49:53;;;;;;;5.65;3.05;;;;;;;;;;5093098;28;20035;-76
2022/09/24 04:52:20;;;;;;;4.70;2.65;;;;;;;;;;5082435;28;20469;-75
2022/09/24 04:54:46;;;;;;;10.18;3.10;;;;;;;;;;5102498;28;20027;-76
2022/09/24 04:57:13;;;;;;;4.95;3.08;;;;;;;;;;5100309;28;20031;-75
2022/09/24 04:59:39;;;;;;;4.97;3.50;;;;;;;;;;5076348;28;20024;-76
2022/09/24 05:02:08;;;;;;;6.10;2.50;;;;;;;;;;5085425;28;20001;-76
2022/09/24 05:04:37;;;;;;;6.53;2.17;;;;;;;;;;5093767;28;20107;-75
2022/09/24 05:07:03;;;;;;;10.90;3.25;;;;;;;;;;5088827;28;20043;-75
2022/09/24 05:09:33;;;;;;;6.47;2.70;;;;;;;;;;5070164;28;20043;-75
2022/09/24 05:11:59;;;;;;;5.30;2.50;;;;;;;;;;5074436;28;20530;-75
2022/09/24 05:14:25;;;;;;;6.30;3.50;;;;;;;;;;5097585;28;20038;-75
2022/09/24 05:16:52;;;;;;;9.00;4.05;;;;;;;;;;5073512;28;20055;-75
2022/09/24 05:19:18;;;;;;;8.52;4.25;;;;;;;;;;5062917;28;20358;-77
2022/09/24 05:21:45;;;;;;;6.47;4.82;;;;;;;;;;5087677;28;20077;-75
2022/09/24 05:24:11;;;;;;;4.57;3.45;;;;;;;;;;5095704;28;20044;-75
2022/09/24 05:29:22;;;;;;;7.93;3.10;;;;;;;;;;5078032;28;20082;-75
2022/09/24 05:31:48;;;;;;;7.82;5.05;;;;;;;;;;5072172;28;20020;-75
2022/09/24 05:34:14;;;;;;;4.70;3.22;;;;;;;;;;5074584;28;20053;-75
2022/09/24 05:36:42;;;;;;;6.00;3.38;;;;;;;;;;5079952;28;20083;-75
2022/09/24 05:39:10;;;;;;;5.88;2.90;;;;;;;;;;5095116;28;20038;-76
2022/09/24 05:41:36;;;;;;;2.97;2.25;;;;;;;;;;5094079;28;20039;-76
2022/09/24 05:44:02;;;;;;;5.90;3.03;;;;;;;;;;5094327;28;20032;-74
2022/09/24 05:46:28;;;;;;;5.18;2.67;;;;;;;;;;5090637;28;20028;-75
2022/09/24 05:48:55;;;;;;;5.75;2.50;;;;;;;;;;5090964;28;20054;-75
2022/09/24 05:51:21;;;;;;;5.53;2.92;;;;;;;;;;5075365;28;20036;-75
2022/09/24 05:53:49;;;;;;;5.55;2.38;;;;;;;;;;5100105;28;20420;-75
2022/09/24 05:56:15;;;;;;;6.97;2.58;;;;;;;;;;5110833;27;20496;-75
2022/09/24 05:58:41;;;;;;;5.07;2.50;;;;;;;;;;5078821;28;20040;-74
2022/09/24 06:01:07;;;;;;;5.35;3.22;;;;;;;;;;5088050;28;20073;-76
2022/09/24 06:03:33;;;;;;;5.32;2.60;;;;;;;;;;5072116;28;20047;-75
2022/09/24 06:06:01;;;;;;;6.05;2.60;;;;;;;;;;5085309;28;20076;-76
2022/09/24 06:08:28;;;;;;;8.35;3.70;;;;;;;;;;5086175;28;20028;-76
2022/09/24 06:10:58;;;;;;;7.05;2.28;;;;;;;;;;5087169;28;20547;-75
2022/09/24 06:13:24;;;;;;;4.00;2.30;;;;;;;;;;5072295;28;20028;-77
2022/09/24 06:15:50;;;;;;;6.70;2.70;;;;;;;;;;5094236;28;20020;-74
2022/09/24 06:18:16;;;;;;;6.15;2.50;;;;;;;;;;5089517;28;20024;-75
2022/09/24 06:20:43;;;;;;;6.35;2.45;;;;;;;;;;5093375;28;20020;-73
2022/09/24 06:23:09;;;;;;;4.80;2.40;;;;;;;;;;5092951;28;20064;-74
2022/09/24 06:25:35;;;;;;;8.95;3.10;;;;;;;;;;5089435;28;20043;-75
2022/09/24 06:28:02;;;;;;;5.85;2.58;;;;;;;;;;5073110;28;20032;-75
2022/09/24 06:30:30;;;;;;;5.13;2.47;;;;;;;;;;5085359;28;20790;-74
2022/09/24 06:33:00;;;;;;;5.75;2.55;;;;;;;;;;5089378;28;20032;-75
2022/09/24 06:35:27;;;;;;;5.18;2.40;;;;;;;;;;5067751;28;20021;-75
2022/09/24 06:37:53;;;;;;;6.95;2.78;;;;;;;;;;5073651;28;20019;-75
2022/09/24 06:40:19;;;;;;;6.93;2.60;;;;;;;;;;5091150;28;20036;-75
2022/09/24 06:42:50;;;;;;;5.35;2.47;;;;;;;;;;5104058;28;20124;-76
2022/09/24 06:45:16;;;;;;;5.32;2.55;;;;;;;;;;5079052;28;20024;-75
2022/09/24 06:47:43;;;;;;;4.80;3.42;;;;;;;;;;5095321;28;20692;-74
2022/09/24 06:50:09;;;;;;;8.15;3.03;;;;;;;;;;5088874;28;20020;-75
2022/09/24 06:52:35;;;;;;;4.75;2.60;;;;;;;;;;5092411;28;20032;-74
2022/09/24 06:55:01;;;;;;;6.03;2.42;;;;;;;;;;5083356;28;20537;-75
2022/09/24 06:57:27;;;;;;;4.60;2.58;;;;;;;;;;5083963;28;20376;-75
2022/09/24 06:59:53;;;;;;;6.50;2.67;;;;;;;;;;5090675;28;20073;-75
2022/09/24 07:02:19;;;;;;;5.65;2.10;;;;;;;;;;5080362;28;20080;-75
2022/09/24 07:04:45;;;;;;;8.77;2.42;;;;;;;;;;5091451;28;20751;-74
2022/09/24 07:09:57;;;;;;;5.70;2.60;;;;;;;;;;5103404;28;20409;-74
2022/09/24 07:12:23;;;;;;;6.80;2.70;;;;;;;;;;5084349;28;20285;-75
2022/09/24 07:14:49;;;;;;;8.02;2.65;;;;;;;;;;5098219;28;20078;-73
2022/09/24 07:17:15;;;;;;;6.25;3.00;;;;;;;;;;5073616;28;20548;-75
2022/09/24 07:19:42;;;;;;;3.95;2.40;;;;;;;;;;5074793;28;20024;-75
2022/09/24 07:22:08;;;;;;;3.53;2.75;;;;;;;;;;5105902;27;20111;-74
2022/09/24 07:24:34;;;;;;;10.50;3.72;;;;;;;;;;5092808;28;20048;-76
2022/09/24 07:27:00;;;;;;;4.68;2.20;;;;;;;;;;5093255;28;20023;-77
2022/09/24 07:29:26;;;;;;;6.03;2.80;;;;;;;;;;5073203;28;20493;-74
2022/09/24 07:31:52;;;;;;;4.75;2.60;;;;;;;;;;5085072;28;20028;-75
2022/09/24 07:34:19;;;;;;;5.32;2.47;;;;;;;;;;5081205;28;20052;-75
2022/09/24 07:36:45;;;;;;;7.00;2.80;;;;;;;;;;5090448;28;20020;-76
2022/09/24 07:39:11;;;;;;;8.80;2.70;;;;;;;;;;5072033;28;20031;-75
2022/09/24 07:41:41;;;;;;;8.02;4.80;;;;;;;;;;5092719;28;20023;-76
2022/09/24 07:44:07;;;;;;;10.48;3.80;;;;;;;;;;5071735;28;20032;-74
2022/09/24 07:46:33;;;;;;;5.40;2.85;;;;;;;;;;5078491;28;20024;-75
2022/09/24 07:49:00;;;;;;;9.57;4.40;;;;;;;;;;5089974;28;20036;-75
2022/09/24 07:51:27;;;;;;;8.38;3.33;;;;;;;;;;5091244;28;20071;-75
2022/09/24 07:53:54;;;;;;;6.68;3.33;;;;;;;;;;5091673;28;20024;-75
2022/09/24 07:56:20;;;;;;;5.85;3.55;;;;;;;;;;5071956;28;20027;-75
2022/09/24 07:58:50;;;;;;;4.30;2.50;;;;;;;;;;5097324;28;20036;-75
2022/09/24 08:01:17;;;;;;;5.45;2.75;;;;;;;;;;5065115;28;20123;-75
2022/09/24 08:03:43;;;;;;;9.18;2.47;;;;;;;;;;5078550;28;20027;-76
2022/09/24 08:06:09;;;;;;;6.03;2.55;;;;;;;;;;5066744;28;21058;-75
2022/09/24 08:08:37;;;;;;;6.65;2.30;;;;;;;;;;5073862;28;20401;-74
2022/09/24 08:11:04;;;;;;;5.03;2.20;;;;;;;;;;5072277;28;20024;-75
2022/09/24 08:13:31;;;;;;;4.78;2.60;;;;;;;;;;5068102;28;20021;-75
2022/09/24 08:16:01;;;;;;;6.03;2.58;;;;;;;;;;5092392;28;20016;-75
2022/09/24 08:18:27;;;;;;;5.80;2.40;;;;;;;;;;5083682;28;20020;-76
2022/09/24 08:20:54;;;;;;;8.93;2.47;;;;;;;;;;5091297;28;20531;-74
2022/09/24 08:23:20;;;;;;;6.93;2.20;;;;;;;;;;5072922;28;20044;-75
2022/09/24 08:25:49;;;;;;;7.00;2.42;;;;;;;;;;5060094;28;20039;-75
2022/09/24 08:28:15;;;;;;;6.60;2.30;;;;;;;;;;5083607;28;20078;-76
2022/09/24 08:30:43;;;;;;;3.72;2.00;;;;;;;;;;5090437;28;20558;-75
2022/09/24 08:33:10;;;;;;;7.68;3.25;;;;;;;;;;5081618;28;20043;-75
2022/09/24 08:35:38;;;;;;;5.45;2.20;;;;;;;;;;5079332;28;20048;-75
2022/09/24 08:38:05;;;;;;;4.15;1.95;;;;;;;;;;5094105;28;20357;-75
2022/09/24 08:40:35;;;;;;;6.40;2.60;;;;;;;;;;5077513;28;20039;-75
2022/09/24 08:43:20;;;;;;;5.07;2.33;;;;;;;;;;5097883;28;20237;-76
2022/09/24 08:48:37;;;;;;;7.88;2.40;;;;;;;;;;5086187;28;20055;-75
2022/09/24 08:51:06;;;;;;;7.25;2.28;;;;;;;;;;5099097;28;20039;-76
2022/09/24 08:53:39;;;;;;;6.47;2.72;;;;;;;;;;5077069;28;20028;-75
2022/09/24 08:56:06;;;;;;;6.38;2.22;;;;;;;;;;5084018;28;20032;-77
2022/09/24 08:58:48;;;;;;;7.25;2.45;;;;;;;;;;5098307;28;20119;-75
2022/09/24 09:01:17;;;;;;;3.80;2.38;;;;;;;;;;5101207;28;20480;-76
2022/09/24 09:03:51;;;;;;;3.05;2.00;;;;;;;;;;5080688;28;20082;-76
2022/09/24 09:06:23;;;;;;;5.43;2.30;;;;;;;;;;5079563;28;20679;-75
2022/09/24 09:08:58;;;;;;;7.53;2.20;;;;;;;;;;5108851;27;20217;-75
2022/09/24 09:11:27;;;;;;;6.80;2.35;;;;;;;;;;5095541;28;20066;-76
2022/09/24 09:13:58;;;;;;;3.45;2.80;;;;;;;;;;5075302;28;20123;-75
2022/09/24 09:16:50;;;;;;;5.65;2.00;;;;;;;;;;5092493;28;20032;-75
2022/09/24 09:19:16;;;;;;;6.97;2.10;;;;;;;;;;5078429;28;20043;-76
2022/09/24 09:21:45;;;;;;;4.07;1.98;;;;;;;;;;5085593;28;20032;-75
2022/09/24 09:24:18;;;;;;;4.05;1.83;;;;;;;;;;5083492;28;20424;-77
2022/09/24 09:26:47;;;;;;;3.78;2.63;;;;;;;;;;5073564;28;20024;-76
2022/09/24 09:29:13;;;;;;;6.78;2.10;;;;;;;;;;5088410;28;20033;-76
2022/09/24 09:31:51;;;;;;;2.55;1.83;;;;;;;;;;5065349;28;20050;-76
2022/09/24 09:34:27;;;;;;;5.25;2.08;;;;;;;;;;5073267;28;20036;-76
2022/09/24 09:37:11;;;;;;;3.35;1.88;;;;;;;;;;5076850;28;20115;-76
2022/09/24 09:39:56;;;;;;;4.63;2.10;;;;;;;;;;5089577;28;20470;-75
2022/09/24 09:42:30;;;;;;;4.47;2.43;;;;;;;;;;5074268;28;20280;-77
2022/09/24 09:44:59;;;;;;;3.47;1.75;;;;;;;;;;5087846;28;20415;-75
2022/09/24 09:47:33;;;;;;;2.97;2.13;;;;;;;;;;5074147;28;20494;-74
2022/09/24 09:50:04;;;;;;;2.97;2.20;;;;;;;;;;5080380;28;20095;-76
2022/09/24 09:52:34;;;;;;;3.35;1.88;;;;;;;;;;5080191;28;20036;-75
2022/09/24 09:55:00;;;;;;;3.78;1.73;;;;;;;;;;5071595;28;20056;-76
2022/09/24 09:57:26;;;;;;;2.40;1.70;;;;;;;;;;5089165;28;20035;-75
2022/09/24 09:59:53;;;;;;;2.00;1.75;;;;;;;;;;5075072;28;20035;-76
2022/09/24 10:02:25;;;;;;;2.00;1.63;;;;;;;;;;5091269;28;20030;-74
2022/09/24 10:04:52;;;;;;;3.15;1.60;;;;;;;;;;5091936;28;20396;-74
2022/09/24 10:07:19;;;;;;;3.63;1.80;;;;;;;;;;5060074;28;20028;-75
2022/09/24 10:09:45;;;;;;;3.83;1.75;;;;;;;;;;5075386;28;20669;-75
2022/09/24 10:12:16;;;;;;;3.55;1.67;;;;;;;;;;5066715;28;20050;-75
2022/09/24 10:14:42;;;;;;;2.25;1.70;;;;;;;;;;5076226;28;20113;-74
2022/09/24 10:17:17;;;;;;;2.53;1.55;;;;;;;;;;5112894;27;20028;-74
2022/09/24 10:19:46;;;;;;;1.95;1.60;;;;;;;;;;5080630;28;20031;-74
2022/09/24 10:22:30;;;;;;;3.38;1.80;;;;;;;;;;5084748;28;20024;-75
2022/09/24 10:24:58;;;;;;;2.95;1.65;;;;;;;;;;5091819;28;21790;-75
2022/09/24 10:27:30;;;;;;;2.17;1.70;;;;;;;;;;5086308;28;20028;-74
2022/09/24 10:32:41;;;;;;;;;;;;;;;;;;5081417;28;20040;-74
2022/09/24 10:35:26;;;;;;;2.75;1.80;;;;;;;;;;5067131;28;19912;-75
2022/09/24 10:37:55;;;;;;;4.18;1.92;;;;;;;;;;5084825;28;20042;-75
2022/09/24 10:40:24;;;;;;;2.63;1.80;;;;;;;;;;5092562;28;20042;-75
2022/09/24 10:42:56;;;;;;;4.50;1.60;;;;;;;;;;5074583;28;20028;-75
2022/09/24 10:45:25;;;;;;;3.70;1.75;;;;;;;;;;5096470;28;20036;-75
2022/09/24 10:48:03;;;;;;;2.25;1.70;;;;;;;;;;5072043;28;20519;-76
2022/09/24 10:50:33;;;;;;;2.58;1.67;;;;;;;;;;5085973;28;20047;-75
2022/09/24 10:53:23;;;;;;;1.50;1.40;;;;;;;;;;5075886;28;20119;-75
2022/09/24 10:55:51;;;;;;;2.55;1.50;;;;;;;;;;5071259;28;20119;-76
2022/09/24 10:58:26;;;;;;;1.40;1.30;;;;;;;;;;5080169;28;20040;-77
2022/09/24 11:01:07;;;;;;;3.17;1.45;;;;;;;;;;5064690;28;20051;-75
2022/09/24 11:03:41;;;;;;;1.98;1.45;;;;;;;;;;5089158;28;20035;-75
2022/09/24 11:06:14;;;;;;;1.67;1.50;;;;;;;;;;5075535;28;20468;-74
2022/09/24 11:08:46;;;;;;;2.25;1.55;;;;;;;;;;5074835;28;20036;-75
2022/09/24 11:11:51;;;;;;;3.35;2.35;;;;;;;;;;5091098;28;20028;-76
2022/09/24 11:14:26;;;;;;;4.20;1.50;;;;;;;;;;4991664;28;20036;-74
2022/09/24 11:16:52;;;;;;;1.80;1.50;;;;;;;;;;5008339;28;20435;-75
2022/09/24 11:19:18;;;;;;;1.45;1.27;;;;;;;;;;5040854;28;20036;-75
2022/09/24 11:22:08;;;;;;;4.60;1.80;;;;;;;;;;5073650;28;20045;-75
2022/09/24 11:24:34;;;;;;;3.33;1.63;;;;;;;;;;5093587;28;20099;-74
2022/09/24 11:27:20;;;;;;;2.15;1.83;;;;;;;;;;5091268;28;20449;-75
2022/09/24 11:30:06;;;;;;;1.73;1.42;;;;;;;;;;5058670;28;20024;-74
2022/09/24 11:32:51;;;;;;;1.50;1.40;;;;;;;;;;5061493;28;20370;-75
2022/09/24 11:35:26;;;;;;;2.13;1.67;;;;;;;;;;5078589;28;20473;-75
2022/09/24 11:38:16;;;;;;;2.03;1.58;;;;;;;;;;5076917;28;20020;-75
2022/09/24 11:41:02;;;;;;;2.38;1.80;;;;;;;;;;5092689;28;20119;-75
2022/09/24 11:43:47;;;;;;;2.08;1.80;;;;;;;;;;5065825;28;20079;-76
2022/09/24 11:46:22;;;;;;;1.90;1.70;;;;;;;;;;5091006;28;20488;-76
2022/09/24 11:48:58;;;;;;;2.50;1.65;;;;;;;;;;5077845;28;20097;-75
2022/09/24 11:51:33;;;;;;;1.70;1.60;;;;;;;;;;5087332;28;20024;-78
2022/09/24 11:54:07;;;;;;;2.45;1.95;;;;;;;;;;5087417;28;20035;-75
2022/09/24 11:56:36;;;;;;;3.65;1.83;;;;;;;;;;5088762;28;20136;-75
2022/09/24 11:59:15;;;;;;;2.45;1.73;;;;;;;;;;5080399;28;20028;-74
2022/09/24 12:01:47;;;;;;;2.33;1.50;;;;;;;;;;5082895;28;20029;-74
2022/09/24 12:04:23;;;;;;;5.80;2.78;;;;;;;;;;5071512;28;20082;-74
2022/09/24 12:06:51;;;;;;;3.75;2.05;;;;;;;;;;5082217;28;20059;-75
2022/09/24 12:09:20;;;;;;;3.05;1.80;;;;;;;;;;5083855;28;20035;-76
2022/09/24 12:12:06;;;;;;;3.47;1.90;;;;;;;;;;5073295;28;20032;-79
2022/09/24 12:14:40;;;;;;;2.53;1.70;;;;;;;;;;5072594;28;20071;-77
2022/09/24 12:17:09;;;;;;;2.10;1.90;;;;;;;;;;5087433;28;20531;-76
2022/09/24 12:19:53;;;;;;;4.97;1.83;;;;;;;;;;5091776;28;20016;-76
2022/09/24 12:22:21;;;;;;;3.13;1.70;;;;;;;;;;5071636;28;20033;-77
2022/09/24 12:24:57;;;;;;;2.67;1.60;;;;;;;;;;5090762;28;20048;-75
2022/09/24 12:27:29;;;;;;;2.55;1.73;;;;;;;;;;5070503;28;20381;-76
2022/09/24 12:32:54;;;;;;;2.53;1.52;;;;;;;;;;5085631;28;20570;-75
2022/09/24 12:35:24;;;;;;;2.22;1.50;;;;;;;;;;5072076;28;20028;-75
2022/09/24 12:37:52;;;;;;;1.50;1.33;;;;;;;;;;5069212;28;20039;-78
2022/09/24 12:40:28;;;;;;;1.70;1.60;;;;;;;;;;5070094;28;20486;-76
2022/09/24 12:42:56;;;;;;;1.75;1.65;;;;;;;;;;5084117;28;20032;-77
2022/09/24 12:45:22;;;;;;;3.78;1.80;;;;;;;;;;5071564;28;20472;-80
2022/09/24 12:47:51;;;;;;;2.20;1.60;;;;;;;;;;5066302;28;20035;-75
2022/09/24 12:50:22;;;;;;;2.03;1.45;;;;;;;;;;5082891;28;20469;-75
2022/09/24 12:52:48;;;;;;;1.48;1.38;;;;;;;;;;5069789;28;20024;-75
2022/09/24 12:55:19;;;;;;;2.50;1.90;;;;;;;;;;5086123;28;20032;-75
2022/09/24 12:57:54;;;;;;;2.47;1.90;;;;;;;;;;5086673;28;20047;-76
2022/09/24 13:00:34;;;;;;;4.72;1.95;;;;;;;;;;5083098;28;20083;-76
2022/09/24 13:03:01;;;;;;;2.78;1.45;;;;;;;;;;5085830;28;20047;-76
2022/09/24 13:05:48;;;;;;;2.30;1.63;;;;;;;;;;5067535;28;20100;-76
2022/09/24 13:08:18;;;;;;;2.38;1.75;;;;;;;;;;5099570;28;20114;-76
2022/09/24 13:10:58;;;;;;;2.92;1.70;;;;;;;;;;5088124;28;20050;-76
2022/09/24 13:13:26;;;;;;;1.75;1.65;;;;;;;;;;5085905;28;20035;-75
2022/09/24 13:16:18;;;;;;;1.80;1.67;;;;;;;;;;5082067;28;20070;-76
2022/09/24 13:18:51;;;;;;;2.05;1.60;;;;;;;;;;5082232;28;20043;-75
2022/09/24 13:21:28;;;;;;;2.17;1.70;;;;;;;;;;5086102;28;20056;-76
2022/09/24 13:23:54;;;;;;;2.42;2.22;;;;;;;;;;5087122;28;20040;-76
2022/09/24 13:26:24;;;;;;;2.25;1.63;;;;;;;;;;5066576;28;20063;-76
2022/09/24 13:29:04;;;;;;;2.95;1.60;;;;;;;;;;5082686;28;20435;-75
2022/09/24 13:31:36;;;;;;;1.77;1.50;;;;;;;;;;5082502;28;20519;-75
2022/09/24 13:34:21;;;;;;;1.83;1.70;;;;;;;;;;5065471;28;20040;-75
2022/09/24 13:37:02;;;;;;;3.10;1.70;;;;;;;;;;5100923;27;20043;-75
2022/09/24 13:39:34;;;;;;;3.25;1.90;;;;;;;;;;5084777;28;20024;-74
2022/09/24 13:42:06;;;;;;;3.85;1.70;;;;;;;;;;5084736;28;20043;-75
2022/09/24 13:44:36;;;;;;;1.73;1.60;;;;;;;;;;5083137;28;20052;-74
2022/09/24 13:47:12;;;;;;;1.52;1.40;;;;;;;;;;5086878;28;21022;-74
2022/09/24 13:49:40;;;;;;;3.58;1.77;;;;;;;;;;5070610;28;20024;-75
2022/09/24 13:52:30;;;;;;;2.70;1.58;;;;;;;;;;5085610;28;20059;-74
2022/09/24 13:54:59;;;;;;;1.70;1.20;;;;;;;;;;5055557;28;20055;-75
2022/09/24 13:57:27;;;;;;;4.10;1.67;;;;;;;;;;5087439;28;20415;-74
2022/09/24 14:00:14;;;;;;;2.40;1.65;;;;;;;;;;5084432;28;20119;-75
2022/09/24 14:02:40;;;;;;;2.83;1.55;;;;;;;;;;5077744;28;20035;-74
2022/09/24 14:05:08;;;;;;;3.80;1.67;;;;;;;;;;5082163;28;20035;-75
2022/09/24 14:07:34;;;;;;;2.65;1.80;;;;;;;;;;5064538;28;20072;-75
2022/09/24 14:10:06;;;;;;;2.47;1.80;;;;;;;;;;5063366;28;20035;-75
2022/09/24 14:12:32;;;;;;;2.63;1.65;;;;;;;;;;5061559;28;20393;-74
2022/09/24 14:14:58;;;;;;;3.10;2.67;;;;;;;;;;5085190;28;20041;-73
2022/09/24 14:17:25;;;;;;;3.92;1.80;;;;;;;;;;5086920;28;20031;-74
2022/09/24 14:19:56;;;;;;;4.13;2.15;;;;;;;;;;5087856;28;20152;-74
2022/09/24 14:22:28;;;;;;;1.80;1.70;;;;;;;;;;5069163;28;20793;-74
2022/09/24 14:25:16;;;;;;;2.67;1.73;;;;;;;;;;5084170;28;20489;-74
2022/09/24 14:27:44;;;;;;;2.92;1.70;;;;;;;;;;5083282;28;20081;-75
2022/09/24 14:30:36;;;;;;;3.33;2.05;;;;;;;;;;5083198;28;20414;-75
2022/09/24 14:33:04;;;;;;;2.05;1.40;;;;;;;;;;5078202;28;20055;-75
2022/09/24 14:35:31;;;;;;;2.63;1.70;;;;;;;;;;5082753;28;20082;-75
2022/09/24 14:38:00;;;;;;;2.72;1.50;;;;;;;;;;5083938;28;20028;-75
2022/09/24 14:40:27;;;;;;;1.33;1.23;;;;;;;;;;5084403;28;20370;-75
2022/09/24 14:42:56;;;;;;;3.65;1.58;;;;;;;;;;5084547;28;20024;-75
2022/09/24 14:45:26;;;;;;;1.52;1.40;;;;;;;;;;5061980;28;20028;-75
2022/09/24 14:48:05;;;;;;;2.10;1.50;;;;;;;;;;5087811;28;20028;-75
2022/09/24 14:50:36;;;;;;;1.40;1.25;;;;;;;;;;5064611;28;20210;-76
2022/09/24 14:53:11;;;;;;;1.67;1.42;;;;;;;;;;5086759;28;20039;-77
2022/09/24 14:55:39;;;;;;;2.75;1.60;;;;;;;;;;5086869;28;20531;-76
2022/09/24 14:58:05;;;;;;;3.00;1.65;;;;;;;;;;5066225;28;20525;-74
2022/09/24 15:00:37;;;;;;;1.92;1.52;;;;;;;;;;5069135;28;20347;-73
2022/09/24 15:03:06;;;;;;;2.50;1.70;;;;;;;;;;5067802;28;20035;-74
2022/09/24 15:05:33;;;;;;;2.05;1.83;;;;;;;;;;5085258;28;20031;-73
2022/09/24 15:08:18;;;;;;;5.05;1.90;;;;;;;;;;5070651;28;20166;-74
2022/09/24 15:10:53;;;;;;;2.63;1.65;;;;;;;;;;5084859;28;20028;-76
2022/09/24 15:13:19;;;;;;;;;;;;;;;;;;5088776;28;20043;-73
2022/09/24 15:15:46;;;;;;;1.92;1.77;;;;;;;;;;5088706;28;20369;-74
2022/09/24 15:18:12;;;;;;;2.25;2.03;;;;;;;;;;5086628;28;20024;-73
2022/09/24 15:20:38;;;;;;;4.28;1.60;;;;;;;;;;5087213;28;20016;-73